Terminal Aerodrome Forecast
Issued by NWS

Home | Current Version | Previous Version | Text Only | Print | Product List | Glossary On
Versions: 1 2 3 4 5 6 7 8 9 10 11 12 13 14
000
FTUS42 KFFC 272322
TAFRYY
TAF
KRYY 272322Z 2800/2824 32005KT P6SM FEW060 SCT250
     FM280400 VRB03KT P6SM SKC
     FM281300 07003KT P6SM SKC
     FM281600 12008KT P6SM SCT050 SCT250
      AMD NOT SKED 2804/2812=

USA.gov is the U.S. government's official web portal to all federal, state and local government web resources and services.